Time;durP1;ratioP1;P1;durP2;ratioP2;P2;SDS_P1;SDS_P2;PMS_P1;PMS_P2;Temp;Humidity;BMP_temperature;BMP_pressure;BME280_temperature;BME280_humidity;BME280_pressure;Samples;Min_cycle;Max_cycle;Signal;HPM_P1;HPM_P2
2023/06/13 00:00:51;;;;;;;;;;;;;;;;;;5059115;28;19924;-80
2023/06/13 00:03:19;;;;;;;;;;;;;;;;;;5062401;28;19936;-80
2023/06/13 00:05:54;;;;;;;;;;;;;;;;;;5062143;28;19931;-81
2023/06/13 00:08:24;;;;;;;;;;;;;;;;;;5062001;28;19924;-80
2023/06/13 00:10:51;;;;;;;;;;;;;;;;;;5062613;28;19935;-81
2023/06/13 00:13:25;;;;;;;;;;;;;;;;;;5060620;28;19929;-81
2023/06/13 00:15:52;;;;;;;;;;;;;;;;;;5057109;28;19929;-80
2023/06/13 00:18:20;;;;;;;;;;;;;;;;;;5059140;28;20404;-80
2023/06/13 00:20:54;;;;;;;;;;;;;;;;;;5065498;28;20304;-79
2023/06/13 00:23:27;;;;;;;;;;;;;;;;;;5060252;28;19928;-79
2023/06/13 00:25:54;;;;;;;;;;;;;;;;;;5062443;28;19933;-80
2023/06/13 00:28:22;;;;;;;;;;;;;;;;;;5064831;28;19931;-80
2023/06/13 00:30:51;;;;;;;;;;;;;;;;;;5060366;28;19936;-79
2023/06/13 00:33:18;;;;;;;;;;;;;;;;;;5061270;28;19925;-81
2023/06/13 00:35:46;;;;;;;;;;;;;;;;;;5061245;28;19948;-80
2023/06/13 00:38:13;;;;;;;;;;;;;;;;;;5059967;28;19925;-79
2023/06/13 00:40:46;;;;;;;;;;;;;;;;;;5068866;28;19928;-80
2023/06/13 00:43:18;;;;;;;;;;;;;;;;;;5060474;28;19932;-80
2023/06/13 00:45:46;;;;;;;;;;;;;;;;;;5061965;28;19931;-80
2023/06/13 00:48:14;;;;;;;;;;;;;;;;;;5063255;28;19924;-80
2023/06/13 00:50:47;;;;;;;;;;;;;;;;;;5059920;28;20400;-80
2023/06/13 00:53:21;;;;;;;;;;;;;;;;;;5061171;28;19929;-81
2023/06/13 00:55:54;;;;;;;;;;;;;;;;;;5060984;28;19943;-80
2023/06/13 00:58:22;;;;;;;;;;;;;;;;;;5062210;28;19924;-80
2023/06/13 01:00:55;;;;;;;;;;;;;;;;;;5059223;28;19925;-79
2023/06/13 01:03:23;;;;;;;;;;;;;;;;;;5057130;28;19929;-80
2023/06/13 01:05:56;;;;;;;;;;;;;;;;;;5068582;28;19924;-79
2023/06/13 01:08:28;;;;;;;;;;;;;;;;;;5067712;28;19999;-79
2023/06/13 01:10:59;;;;;;;;;;;;;;;;;;5056229;28;19935;-80
2023/06/13 01:13:34;;;;;;;;;;;;;;;;;;5058646;28;20357;-80
2023/06/13 01:16:02;;;;;;;;;;;;;;;;;;5058631;28;19940;-79
2023/06/13 01:18:30;;;;;;;;;;;;;;;;;;5076081;28;19935;-79
2023/06/13 01:20:58;;;;;;;;;;;;;;;;;;5062209;28;19961;-80
2023/06/13 01:23:25;;;;;;;;;;;;;;;;;;5066993;28;19935;-80
2023/06/13 01:25:59;;;;;;;;;;;;;;;;;;5066387;28;20517;-79
2023/06/13 01:28:26;;;;;;;;;;;;;;;;;;5067118;28;19928;-79
2023/06/13 01:30:54;;;;;;;;;;;;;;;;;;5061312;28;20788;-79
2023/06/13 01:33:21;;;;;;;;;;;;;;;;;;5058705;28;19928;-79
2023/06/13 01:35:49;;;;;;;;;;;;;;;;;;5060941;28;20380;-80
2023/06/13 01:38:22;;;;;;;;;;;;;;;;;;5062149;28;19925;-79
2023/06/13 01:40:50;;;;;;;;;;;;;;;;;;5059669;28;19928;-79
2023/06/13 01:43:17;;;;;;;;;;;;;;;;;;5057058;28;19936;-80
2023/06/13 01:45:50;;;;;;;;;;;;;;;;;;5061356;28;20353;-80
2023/06/13 01:48:18;;;;;;;;;;;;;;;;;;5061100;28;19928;-81
2023/06/13 01:50:50;;;;;;;;;;;;;;;;;;5062606;28;20010;-80
2023/06/13 01:53:18;;;;;;;;;;;;;;;;;;5060642;28;20573;-80
2023/06/13 01:55:46;;;;;;;;;;;;;;;;;;5058155;28;19925;-80
2023/06/13 01:58:14;;;;;;;;;;;;;;;;;;5060753;28;19928;-80
2023/06/13 02:00:46;;;;;;;;;;;;;;;;;;5067972;28;20289;-81
2023/06/13 02:03:14;;;;;;;;;;;;;;;;;;5058557;28;19928;-79
2023/06/13 02:05:46;;;;;;;;;;;;;;;;;;5057668;28;20296;-80
2023/06/13 02:08:19;;;;;;;;;;;;;;;;;;5061893;28;19928;-79
2023/06/13 02:10:46;;;;;;;;;;;;;;;;;;5058269;28;19940;-80
2023/06/13 02:13:19;;;;;;;;;;;;;;;;;;5060591;28;19928;-80
2023/06/13 02:15:47;;;;;;;;;;;;;;;;;;5072682;28;19959;-82
2023/06/13 02:18:20;;;;;;;;;;;;;;;;;;5061164;28;19936;-80
2023/06/13 02:20:47;;;;;;;;;;;;;;;;;;5060635;28;19963;-80
2023/06/13 02:23:20;;;;;;;;;;;;;;;;;;5059715;28;19947;-80
2023/06/13 02:25:53;;;;;;;;;;;;;;;;;;5057466;28;19932;-79
2023/06/13 02:28:20;;;;;;;;;;;;;;;;;;5059611;28;19936;-79
2023/06/13 02:30:48;;;;;;;;;;;;;;;;;;5059932;28;20297;-79
2023/06/13 02:33:15;;;;;;;;;;;;;;;;;;5060786;28;19935;-80
2023/06/13 02:35:45;;;;;;;;;;;;;;;;;;5059004;28;19932;-79
2023/06/13 02:38:13;;;;;;;;;;;;;;;;;;5058529;28;19925;-80
2023/06/13 02:40:40;;;;;;;;;;;;;;;;;;5066367;28;19928;-80
2023/06/13 02:43:13;;;;;;;;;;;;;;;;;;5060331;28;19931;-79
2023/06/13 02:45:45;;;;;;;;;;;;;;;;;;5059011;28;19935;-80
2023/06/13 02:48:20;;;;;;;;;;;;;;;;;;5069921;28;19924;-80
2023/06/13 02:50:48;;;;;;;;;;;;;;;;;;5057671;28;19935;-79
2023/06/13 02:53:21;;;;;;;;;;;;;;;;;;5060579;28;19940;-79
2023/06/13 02:55:48;;;;;;;;;;;;;;;;;;5059119;28;19925;-80
2023/06/13 02:58:21;;;;;;;;;;;;;;;;;;5061366;28;19928;-80
2023/06/13 03:00:49;;;;;;;;;;;;;;;;;;5057153;28;19948;-79
2023/06/13 03:03:18;;;;;;;;;;;;;;;;;;5058718;28;19932;-80
2023/06/13 03:05:47;;;;;;;;;;;;;;;;;;5058360;28;19936;-80
2023/06/13 03:08:20;;;;;;;;;;;;;;;;;;5059854;28;19940;-80
2023/06/13 03:10:49;;;;;;;;;;;;;;;;;;5058187;28;19951;-80
2023/06/13 03:13:21;;;;;;;;;;;;;;;;;;5056914;28;19929;-80
2023/06/13 03:15:51;;;;;;;;;;;;;;;;;;5059064;28;20405;-79
2023/06/13 03:18:25;;;;;;;;;;;;;;;;;;5058050;28;19928;-80
2023/06/13 03:20:58;;;;;;;;;;;;;;;;;;5057782;28;19932;-79
2023/06/13 03:23:26;;;;;;;;;;;;;;;;;;5059500;28;20376;-80
2023/06/13 03:25:58;;;;;;;;;;;;;;;;;;5059074;28;20305;-79
2023/06/13 03:28:26;;;;;;;;;;;;;;;;;;5057680;28;19952;-80
2023/06/13 03:31:00;;;;;;;;;;;;;;;;;;5056123;28;19940;-80
2023/06/13 03:33:30;;;;;;;;;;;;;;;;;;5071910;28;19932;-80
2023/06/13 03:36:03;;;;;;;;;;;;;;;;;;5062112;28;19931;-80
2023/06/13 03:38:36;;;;;;;;;;;;;;;;;;5063571;28;19929;-79
2023/06/13 03:41:03;;;;;;;;;;;;;;;;;;5061487;28;20370;-80
2023/06/13 03:43:32;;;;;;;;;;;;;;;;;;5062574;28;20403;-79
2023/06/13 03:46:00;;;;;;;;;;;;;;;;;;5062415;28;19929;-78
2023/06/13 03:48:28;;;;;;;;;;;;;;;;;;5065112;28;20578;-78
2023/06/13 03:50:56;;;;;;;;;;;;;;;;;;5064413;28;19928;-79
2023/06/13 03:53:29;;;;;;;;;;;;;;;;;;5065665;28;19931;-79
2023/06/13 03:55:57;;;;;;;;;;;;;;;;;;5062232;28;20427;-79
2023/06/13 03:58:25;;;;;;;;;;;;;;;;;;5063147;28;19936;-79
2023/06/13 04:00:57;;;;;;;;;;;;;;;;;;5060458;28;19924;-80
2023/06/13 04:03:29;;;;;;;;;;;;;;;;;;5060815;28;19929;-80
2023/06/13 04:06:01;;;;;;;;;;;;;;;;;;5060269;28;19929;-79
2023/06/13 04:08:35;;;;;;;;;;;;;;;;;;5062513;28;19928;-79
2023/06/13 04:11:08;;;;;;;;;;;;;;;;;;5061803;28;19929;-78
2023/06/13 04:13:36;;;;;;;;;;;;;;;;;;5061835;28;20279;-80
2023/06/13 04:16:03;;;;;;;;;;;;;;;;;;5061221;28;20381;-80
2023/06/13 04:18:39;;;;;;;;;;;;;;;;;;5057385;28;19935;-81
2023/06/13 04:21:08;;;;;;;;;;;;;;;;;;5078831;28;19932;-80
2023/06/13 04:23:41;;;;;;;;;;;;;;;;;;5062640;28;19933;-79
2023/06/13 04:26:08;;;;;;;;;;;;;;;;;;5069717;28;19925;-80
2023/06/13 04:28:41;;;;;;;;;;;;;;;;;;5060730;28;20566;-79
2023/06/13 04:31:08;;;;;;;;;;;;;;;;;;5057068;28;19940;-80
2023/06/13 04:33:38;;;;;;;;;;;;;;;;;;5059986;28;19935;-79
2023/06/13 04:36:13;;;;;;;;;;;;;;;;;;5063770;28;19928;-79
2023/06/13 04:38:45;;;;;;;;;;;;;;;;;;5060693;28;19936;-79
2023/06/13 04:41:13;;;;;;;;;;;;;;;;;;5059340;28;19939;-79
2023/06/13 04:43:46;;;;;;;;;;;;;;;;;;5060226;28;19928;-80
2023/06/13 04:46:18;;;;;;;;;;;;;;;;;;5058522;28;19928;-79
2023/06/13 04:48:45;;;;;;;;;;;;;;;;;;5061678;28;19928;-80
2023/06/13 04:51:13;;;;;;;;;;;;;;;;;;5059901;28;20397;-79
2023/06/13 04:53:45;;;;;;;;;;;;;;;;;;5061144;28;20000;-80
2023/06/13 04:56:13;;;;;;;;;;;;;;;;;;5058983;28;19929;-80
2023/06/13 04:58:40;;;;;;;;;;;;;;;;;;5062097;28;19932;-80
2023/06/13 05:01:10;;;;;;;;;;;;;;;;;;5058053;28;20374;-79
2023/06/13 05:03:38;;;;;;;;;;;;;;;;;;5056628;28;19931;-80
2023/06/13 05:06:06;;;;;;;;;;;;;;;;;;5056771;28;19932;-80
2023/06/13 05:08:38;;;;;;;;;;;;;;;;;;5057782;28;20373;-79
2023/06/13 05:11:11;;;;;;;;;;;;;;;;;;5058462;28;19929;-79
2023/06/13 05:13:43;;;;;;;;;;;;;;;;;;5059227;28;21072;-79
2023/06/13 05:16:11;;;;;;;;;;;;;;;;;;5065695;28;19953;-80
2023/06/13 05:18:44;;;;;;;;;;;;;;;;;;5058990;28;19932;-79
2023/06/13 05:21:18;;;;;;;;;;;;;;;;;;5055629;28;19935;-79
2023/06/13 05:23:48;;;;;;;;;;;;;;;;;;5051689;28;19947;-80
2023/06/13 05:26:21;;;;;;;;;;;;;;;;;;5060546;28;20180;-80
2023/06/13 05:28:48;;;;;;;;;;;;;;;;;;5059659;28;19931;-79
2023/06/13 05:31:21;;;;;;;;;;;;;;;;;;5054566;28;19928;-80
2023/06/13 05:33:48;;;;;;;;;;;;;;;;;;5057048;28;19933;-79
2023/06/13 05:36:17;;;;;;;;;;;;;;;;;;5054342;28;19932;-79
2023/06/13 05:38:45;;;;;;;;;;;;;;;;;;5060666;28;19932;-80
2023/06/13 05:41:12;;;;;;;;;;;;;;;;;;5073060;28;19932;-79
2023/06/13 05:43:45;;;;;;;;;;;;;;;;;;5057854;28;19931;-80
2023/06/13 05:46:17;;;;;;;;;;;;;;;;;;5061831;28;20505;-79
2023/06/13 05:48:45;;;;;;;;;;;;;;;;;;5060442;28;19959;-79
2023/06/13 05:51:18;;;;;;;;;;;;;;;;;;5054086;28;19929;-80
2023/06/13 05:53:51;;;;;;;;;;;;;;;;;;5062724;28;19929;-80
2023/06/13 05:56:18;;;;;;;;;;;;;;;;;;5059250;28;19925;-80
2023/06/13 05:58:51;;;;;;;;;;;;;;;;;;5059305;28;20387;-79
2023/06/13 06:01:21;;;;;;;;;;;;;;;;;;5055757;28;20681;-80
2023/06/13 06:03:48;;;;;;;;;;;;;;;;;;5056910;28;20385;-78
2023/06/13 06:06:16;;;;;;;;;;;;;;;;;;5058456;28;19928;-80
2023/06/13 06:08:48;;;;;;;;;;;;;;;;;;5057052;28;20313;-79
2023/06/13 06:11:16;;;;;;;;;;;;;;;;;;5060049;28;19928;-81
2023/06/13 06:13:43;;;;;;;;;;;;;;;;;;5076410;28;19925;-79
2023/06/13 06:16:16;;;;;;;;;;;;;;;;;;5057461;28;19928;-79
2023/06/13 06:18:43;;;;;;;;;;;;;;;;;;5058549;28;19924;-78
2023/06/13 06:21:11;;;;;;;;;;;;;;;;;;5059042;28;19933;-82
2023/06/13 06:23:39;;;;;;;;;;;;;;;;;;5061493;28;19924;-79
2023/06/13 06:26:12;;;;;;;;;;;;;;;;;;5054125;28;19936;-79
2023/06/13 06:28:39;;;;;;;;;;;;;;;;;;5056981;28;19924;-80
2023/06/13 06:31:10;;;;;;;;;;;;;;;;;;5059134;28;19931;-79
2023/06/13 06:33:42;;;;;;;;;;;;;;;;;;5057552;28;20408;-79
2023/06/13 06:36:15;;;;;;;;;;;;;;;;;;5057472;28;19932;-80
2023/06/13 06:38:48;;;;;;;;;;;;;;;;;;5044212;28;20439;-80
2023/06/13 06:41:16;;;;;;;;;;;;;;;;;;5046748;28;20010;-81
2023/06/13 06:43:49;;;;;;;;;;;;;;;;;;5040775;28;19940;-81
2023/06/13 06:46:16;;;;;;;;;;;;;;;;;;5035715;28;20745;-80
2023/06/13 06:48:44;;;;;;;;;;;;;;;;;;5043250;28;19943;-81
2023/06/13 06:51:16;;;;;;;;;;;;;;;;;;5034369;28;20789;-80
2023/06/13 06:53:50;;;;;;;;;;;;;;;;;;5033293;28;19933;-82
2023/06/13 06:56:23;;;;;;;;;;;;;;;;;;5038360;28;19932;-81
2023/06/13 06:58:50;;;;;;;;;;;;;;;;;;5049684;28;19932;-80
2023/06/13 07:01:23;;;;;;;;;;;;;;;;;;5035121;28;19932;-80
2023/06/13 07:03:55;;;;;;;;;;;;;;;;;;5042694;28;20394;-81
2023/06/13 07:06:28;;;;;;;;;;;;;;;;;;5038229;28;19933;-80
2023/06/13 07:09:00;;;;;;;;;;;;;;;;;;5036643;28;19933;-80
2023/06/13 07:11:28;;;;;;;;;;;;;;;;;;5046595;28;19943;-79
2023/06/13 07:14:00;;;;;;;;;;;;;;;;;;5040427;28;19944;-79
2023/06/13 07:16:28;;;;;;;;;;;;;;;;;;5045344;28;19943;-80
2023/06/13 07:18:56;;;;;;;;;;;;;;;;;;5032309;28;19944;-80
2023/06/13 07:21:23;;;;;;;;;;;;;;;;;;5035598;28;20415;-78
2023/06/13 07:23:51;;;;;;;;;;;;;;;;;;5046764;28;19932;-80
2023/06/13 07:26:23;;;;;;;;;;;;;;;;;;5039238;28;19933;-80
2023/06/13 07:28:56;;;;;;;;;;;;;;;;;;5034640;28;19932;-80
2023/06/13 07:31:28;;;;;;;;;;;;;;;;;;5043229;28;21225;-79
2023/06/13 07:34:01;;;;;;;;;;;;;;;;;;5040967;28;19944;-81
2023/06/13 07:36:29;;;;;;;;;;;;;;;;;;5037841;28;19932;-81
2023/06/13 07:38:56;;;;;;;;;;;;;;;;;;5041701;28;20423;-81
2023/06/13 07:41:25;;;;;;;;;;;;;;;;;;5039396;28;19925;-82
2023/06/13 07:43:52;;;;;;;;;;;;;;;;;;5044972;28;19933;-81
2023/06/13 07:46:25;;;;;;;;;;;;;;;;;;5041666;28;20439;-80
2023/06/13 07:48:53;;;;;;;;;;;;;;;;;;5038338;28;20044;-82
2023/06/13 07:51:25;;;;;;;;;;;;;;;;;;5043757;28;19932;-81
2023/06/13 07:53:58;;;;;;;;;;;;;;;;;;5040903;28;20391;-80
2023/06/13 07:56:26;;;;;;;;;;;;;;;;;;5034296;28;19943;-81
2023/06/13 07:58:58;;;;;;;;;;;;;;;;;;5036054;28;19932;-81
2023/06/13 08:01:31;;;;;;;;;;;;;;;;;;5036216;28;19987;-81
2023/06/13 08:03:58;;;;;;;;;;;;;;;;;;5035627;28;19932;-82
2023/06/13 08:06:26;;;;;;;;;;;;;;;;;;5032522;28;19933;-81
2023/06/13 08:08:58;;;;;;;;;;;;;;;;;;5038619;28;19939;-80
2023/06/13 08:11:26;;;;;;;;;;;;;;;;;;5046230;28;19943;-80
2023/06/13 08:13:59;;;;;;;;;;;;;;;;;;5036058;28;19939;-82
2023/06/13 08:16:27;;;;;;;;;;;;;;;;;;5038954;28;19929;-80
2023/06/13 08:18:54;;;;;;;;;;;;;;;;;;5034131;28;19932;-80
2023/06/13 08:21:22;;;;;;;;;;;;;;;;;;5040134;28;19932;-82
2023/06/13 08:23:51;;;;;;;;;;;;;;;;;;5046610;28;19936;-80
2023/06/13 08:26:25;;;;;;;;;;;;;;;;;;5039104;28;20718;-81
2023/06/13 08:28:53;;;;;;;;;;;;;;;;;;5045506;28;19936;-80
2023/06/13 08:31:26;;;;;;;;;;;;;;;;;;5044057;28;19939;-81
2023/06/13 08:33:55;;;;;;;;;;;;;;;;;;5041533;28;19939;-81
2023/06/13 08:36:22;;;;;;;;;;;;;;;;;;5038797;28;19943;-81
2023/06/13 08:38:50;;;;;;;;;;;;;;;;;;5038751;28;19938;-79
2023/06/13 08:41:17;;;;;;;;;;;;;;;;;;5038391;28;19929;-80
2023/06/13 08:43:45;;;;;;;;;;;;;;;;;;5044065;28;19932;-81
2023/06/13 08:46:17;;;;;;;;;;;;;;;;;;5039126;28;20593;-80
2023/06/13 08:48:45;;;;;;;;;;;;;;;;;;5038013;28;19932;-81
2023/06/13 08:51:16;;;;;;;;;;;;;;;;;;5036991;28;20384;-81
2023/06/13 08:53:45;;;;;;;;;;;;;;;;;;5044280;28;20574;-82
2023/06/13 08:56:18;;;;;;;;;;;;;;;;;;5042717;28;19950;-82
2023/06/13 08:58:45;;;;;;;;;;;;;;;;;;5041283;28;19999;-81
2023/06/13 09:01:19;;;;;;;;;;;;;;;;;;5045699;28;19933;-80
2023/06/13 09:03:52;;;;;;;;;;;;;;;;;;5050130;28;19955;-83
2023/06/13 09:06:20;;;;;;;;;;;;;;;;;;5038604;28;20381;-81
2023/06/13 09:08:48;;;;;;;;;;;;;;;;;;5038062;28;19933;-82
2023/06/13 09:11:20;;;;;;;;;;;;;;;;;;5036380;28;19933;-80
2023/06/13 09:13:48;;;;;;;;;;;;;;;;;;5038938;28;20577;-83
2023/06/13 09:16:15;;;;;;;;;;;;;;;;;;5042959;28;20611;-80
2023/06/13 09:18:43;;;;;;;;;;;;;;;;;;5040586;28;20400;-80
2023/06/13 09:21:10;;;;;;;;;;;;;;;;;;5039355;28;19940;-81
2023/06/13 09:23:43;;;;;;;;;;;;;;;;;;5039758;28;20304;-81
2023/06/13 09:26:11;;;;;;;;;;;;;;;;;;5043574;28;19939;-82
2023/06/13 09:28:40;;;;;;;;;;;;;;;;;;5037072;28;19933;-81
2023/06/13 09:31:07;;;;;;;;;;;;;;;;;;5039358;28;20388;-81
2023/06/13 09:33:35;;;;;;;;;;;;;;;;;;5042161;28;19932;-80
2023/06/13 09:36:02;;;;;;;;;;;;;;;;;;5043150;28;19933;-81
2023/06/13 09:38:36;;;;;;;;;;;;;;;;;;5048316;28;20460;-84
2023/06/13 09:41:04;;;;;;;;;;;;;;;;;;5042530;28;20889;-79
2023/06/13 09:43:31;;;;;;;;;;;;;;;;;;5042145;28;19932;-82
2023/06/13 09:46:04;;;;;;;;;;;;;;;;;;5042342;28;20635;-80
2023/06/13 09:48:37;;;;;;;;;;;;;;;;;;5045607;28;19931;-81
2023/06/13 09:51:09;;;;;;;;;;;;;;;;;;5045098;28;19939;-83
2023/06/13 09:53:42;;;;;;;;;;;;;;;;;;5045222;28;19933;-80
2023/06/13 09:56:10;;;;;;;;;;;;;;;;;;5041528;28;19932;-81
2023/06/13 09:58:37;;;;;;;;;;;;;;;;;;5039318;28;20420;-81
2023/06/13 10:01:15;;;;;;;;;;;;;;;;;;5046101;28;20613;-80
2023/06/13 10:03:43;;;;;;;;;;;;;;;;;;5039609;28;19932;-81
2023/06/13 10:06:16;;;;;;;;;;;;;;;;;;5044655;28;20412;-87
2023/06/13 10:08:43;;;;;;;;;;;;;;;;;;5041158;28;19931;-83
2023/06/13 10:11:11;;;;;;;;;;;;;;;;;;5035146;28;19928;-81
2023/06/13 10:13:44;;;;;;;;;;;;;;;;;;5035298;28;19932;-81
2023/06/13 10:16:12;;;;;;;;;;;;;;;;;;5039566;28;19932;-80
2023/06/13 10:18:44;;;;;;;;;;;;;;;;;;5036993;28;20869;-81
2023/06/13 10:21:13;;;;;;;;;;;;;;;;;;5036632;28;19933;-78
2023/06/13 10:23:40;;;;;;;;;;;;;;;;;;5038307;28;19940;-81
2023/06/13 10:26:09;;;;;;;;;;;;;;;;;;5037015;28;19932;-81
2023/06/13 10:28:41;;;;;;;;;;;;;;;;;;5035415;28;19933;-81
2023/06/13 10:31:10;;;;;;;;;;;;;;;;;;5036425;28;19933;-82
2023/06/13 10:33:37;;;;;;;;;;;;;;;;;;5037479;28;19939;-81
2023/06/13 10:36:05;;;;;;;;;;;;;;;;;;5046464;28;21676;-83
2023/06/13 10:38:33;;;;;;;;;;;;;;;;;;5016782;28;19932;-82
2023/06/13 10:41:06;;;;;;;;;;;;;;;;;;5043120;28;19932;-82
2023/06/13 10:43:34;;;;;;;;;;;;;;;;;;5043506;28;19933;-82
2023/06/13 10:46:06;;;;;;;;;;;;;;;;;;5039513;28;19932;-80
2023/06/13 10:48:34;;;;;;;;;;;;;;;;;;5039398;28;19971;-82
2023/06/13 10:51:01;;;;;;;;;;;;;;;;;;5041404;28;19929;-80
2023/06/13 10:53:30;;;;;;;;;;;;;;;;;;5040847;28;19933;-80
2023/06/13 10:55:58;;;;;;;;;;;;;;;;;;5045783;28;20692;-84
2023/06/13 10:58:26;;;;;;;;;;;;;;;;;;5037647;28;20285;-78
2023/06/13 11:00:53;;;;;;;;;;;;;;;;;;5044878;28;19939;-80
2023/06/13 11:03:21;;;;;;;;;;;;;;;;;;5038644;28;19940;-82
2023/06/13 11:05:48;;;;;;;;;;;;;;;;;;5037339;28;19946;-80
2023/06/13 11:08:21;;;;;;;;;;;;;;;;;;5036127;28;21570;-82
2023/06/13 11:10:53;;;;;;;;;;;;;;;;;;5042564;28;19998;-81
2023/06/13 11:13:26;;;;;;;;;;;;;;;;;;5041251;28;19933;-84
2023/06/13 11:15:54;;;;;;;;;;;;;;;;;;5040900;28;19932;-82
2023/06/13 11:18:21;;;;;;;;;;;;;;;;;;5050521;28;19929;-79
2023/06/13 11:20:49;;;;;;;;;;;;;;;;;;5053138;28;19928;-80
2023/06/13 11:23:17;;;;;;;;;;;;;;;;;;5055905;28;20289;-80
2023/06/13 11:25:45;;;;;;;;;;;;;;;;;;5053863;28;20469;-79
2023/06/13 11:28:12;;;;;;;;;;;;;;;;;;5060441;28;19929;-79
2023/06/13 11:30:40;;;;;;;;;;;;;;;;;;5059521;28;19928;-79
2023/06/13 11:33:12;;;;;;;;;;;;;;;;;;5062206;28;19925;-81
2023/06/13 11:35:45;;;;;;;;;;;;;;;;;;5060594;28;19936;-81
2023/06/13 11:38:15;;;;;;;;;;;;;;;;;;5060094;28;19925;-80
2023/06/13 11:40:47;;;;;;;;;;;;;;;;;;5054086;28;19996;-82
2023/06/13 11:43:15;;;;;;;;;;;;;;;;;;5055059;28;19936;-80
2023/06/13 11:45:42;;;;;;;;;;;;;;;;;;5056670;28;19925;-80
2023/06/13 11:51:00;;;;;;;;;;;;;;;;;;5058822;28;19925;-81
2023/06/13 11:53:32;;;;;;;;;;;;;;;;;;5057753;28;19924;-79
2023/06/13 11:56:05;;;;;;;;;;;;;;;;;;5061491;28;19936;-81
2023/06/13 11:58:34;;;;;;;;;;;;;;;;;;5062097;28;19936;-80
2023/06/13 12:01:02;;;;;;;;;;;;;;;;;;5076420;28;20293;-79
2023/06/13 12:03:37;;;;;;;;;;;;;;;;;;5061634;28;20262;-80
2023/06/13 12:06:04;;;;;;;;;;;;;;;;;;5059586;28;19932;-85
2023/06/13 12:08:37;;;;;;;;;;;;;;;;;;5062888;28;20947;-80
2023/06/13 12:11:05;;;;;;;;;;;;;;;;;;5059242;28;19931;-79
2023/06/13 12:13:33;;;;;;;;;;;;;;;;;;5061947;28;19932;-78
2023/06/13 12:16:06;;;;;;;;;;;;;;;;;;5061158;28;19951;-79
2023/06/13 12:18:34;;;;;;;;;;;;;;;;;;5061695;28;19929;-79
2023/06/13 12:21:02;;;;;;;;;;;;;;;;;;5061552;28;19936;-79
2023/06/13 12:23:35;;;;;;;;;;;;;;;;;;5074367;28;20370;-83
2023/06/13 12:26:08;;;;;;;;;;;;;;;;;;5037135;28;19932;-82
2023/06/13 12:28:36;;;;;;;;;;;;;;;;;;5043302;28;19933;-80
2023/06/13 12:31:07;;;;;;;;;;;;;;;;;;5040291;28;19947;-81
2023/06/13 12:33:35;;;;;;;;;;;;;;;;;;5039149;28;19929;-82
2023/06/13 12:36:02;;;;;;;;;;;;;;;;;;5038104;28;20293;-80
2023/06/13 12:38:31;;;;;;;;;;;;;;;;;;5043031;28;20184;-79
2023/06/13 12:40:58;;;;;;;;;;;;;;;;;;5034777;28;19933;-83
2023/06/13 12:43:26;;;;;;;;;;;;;;;;;;5040714;28;19935;-82
2023/06/13 12:46:11;;;;;;;;;;;;;;;;;;5038615;28;19929;-80
2023/06/13 12:48:39;;;;;;;;;;;;;;;;;;5049144;28;19932;-83
2023/06/13 12:51:07;;;;;;;;;;;;;;;;;;5040304;28;20137;-82
2023/06/13 12:53:34;;;;;;;;;;;;;;;;;;5045644;28;19939;-84
2023/06/13 12:56:19;;;;;;;;;;;;;;;;;;5042240;28;19928;-82
2023/06/13 12:58:48;;;;;;;;;;;;;;;;;;5062674;28;20292;-81
2023/06/13 13:01:16;;;;;;;;;;;;;;;;;;5043108;28;19933;-79
2023/06/13 13:03:43;;;;;;;;;;;;;;;;;;5038127;28;21417;-82
2023/06/13 13:06:16;;;;;;;;;;;;;;;;;;5039151;28;19940;-80
2023/06/13 13:09:04;;;;;;;;;;;;;;;;;;5039273;28;19932;-82
2023/06/13 13:11:39;;;;;;;;;;;;;;;;;;5043670;28;20340;-83
2023/06/13 13:14:06;;;;;;;;;;;;;;;;;;5045017;28;19939;-83
2023/06/13 13:16:34;;;;;;;;;;;;;;;;;;5046787;28;20705;-81
2023/06/13 13:19:01;;;;;;;;;;;;;;;;;;5044167;28;19936;-81
2023/06/13 13:21:29;;;;;;;;;;;;;;;;;;5045977;28;21242;-84
2023/06/13 13:23:56;;;;;;;;;;;;;;;;;;5039116;28;20431;-83
2023/06/13 13:26:24;;;;;;;;;;;;;;;;;;5040185;28;20595;-80
2023/06/13 13:28:51;;;;;;;;;;;;;;;;;;5027694;28;19933;-81
2023/06/13 13:31:19;;;;;;;;;;;;;;;;;;5036898;28;19933;-81
2023/06/13 13:33:46;;;;;;;;;;;;;;;;;;5039124;28;19933;-81
2023/06/13 13:36:14;;;;;;;;;;;;;;;;;;5046260;28;20641;-83
2023/06/13 13:38:41;;;;;;;;;;;;;;;;;;5041638;28;20019;-80
2023/06/13 13:41:09;;;;;;;;;;;;;;;;;;5032188;28;19932;-81
2023/06/13 13:43:37;;;;;;;;;;;;;;;;;;5040623;28;19928;-81
2023/06/13 13:46:09;;;;;;;;;;;;;;;;;;5042412;28;20336;-81
2023/06/13 13:48:38;;;;;;;;;;;;;;;;;;5039398;28;19932;-81
2023/06/13 13:51:11;;;;;;;;;;;;;;;;;;5035030;28;19928;-82
2023/06/13 13:53:39;;;;;;;;;;;;;;;;;;5036813;28;19936;-83
2023/06/13 13:56:12;;;;;;;;;;;;;;;;;;5045766;28;20294;-83
2023/06/13 13:58:39;;;;;;;;;;;;;;;;;;5036375;28;19933;-81
2023/06/13 14:01:12;;;;;;;;;;;;;;;;;;5042041;28;19936;-82
2023/06/13 14:03:57;;;;;;;;;;;;;;;;;;5036573;28;19932;-81
2023/06/13 14:06:26;;;;;;;;;;;;;;;;;;5038685;28;20403;-81
2023/06/13 14:08:53;;;;;;;;;;;;;;;;;;5043346;28;19928;-80
2023/06/13 14:11:26;;;;;;;;;;;;;;;;;;5040531;28;19932;-80
2023/06/13 14:13:58;;;;;;;;;;;;;;;;;;5041397;28;19946;-81
2023/06/13 14:16:27;;;;;;;;;;;;;;;;;;5045213;28;19932;-81
2023/06/13 14:18:57;;;;;;;;;;;;;;;;;;5040457;28;20467;-83
2023/06/13 14:21:29;;;;;;;;;;;;;;;;;;5037788;28;20459;-79
2023/06/13 14:24:02;;;;;;;;;;;;;;;;;;5042460;28;19928;-80
2023/06/13 14:26:31;;;;;;;;;;;;;;;;;;5037630;28;19955;-82
2023/06/13 14:29:04;;;;;;;;;;;;;;;;;;5039776;28;20301;-81
2023/06/13 14:31:31;;;;;;;;;;;;;;;;;;5043993;28;20301;-88
2023/06/13 14:33:59;;;;;;;;;;;;;;;;;;5038461;28;19940;-79
2023/06/13 14:36:31;;;;;;;;;;;;;;;;;;5030204;28;19928;-80
2023/06/13 14:39:04;;;;;;;;;;;;;;;;;;5038918;28;19933;-85
2023/06/13 14:41:37;;;;;;;;;;;;;;;;;;5040592;28;19940;-80
2023/06/13 14:44:10;;;;;;;;;;;;;;;;;;5044417;28;19933;-80
2023/06/13 14:46:42;;;;;;;;;;;;;;;;;;5040046;28;19932;-81
2023/06/13 14:49:10;;;;;;;;;;;;;;;;;;5041422;28;19940;-83
2023/06/13 14:51:42;;;;;;;;;;;;;;;;;;5039762;28;19929;-86
2023/06/13 14:54:10;;;;;;;;;;;;;;;;;;5037653;28;19940;-82
2023/06/13 14:56:43;;;;;;;;;;;;;;;;;;5043012;28;19932;-82
2023/06/13 14:59:15;;;;;;;;;;;;;;;;;;5036549;28;19932;-82
2023/06/13 15:01:43;;;;;;;;;;;;;;;;;;5037337;28;19939;-82
2023/06/13 15:04:16;;;;;;;;;;;;;;;;;;5039101;28;19932;-86
2023/06/13 15:06:43;;;;;;;;;;;;;;;;;;5041454;28;19938;-82
2023/06/13 15:09:13;;;;;;;;;;;;;;;;;;5043169;28;19933;-83
2023/06/13 15:11:41;;;;;;;;;;;;;;;;;;5038752;28;19932;-82
2023/06/13 15:14:09;;;;;;;;;;;;;;;;;;5038437;28;19936;-82
2023/06/13 15:16:36;;;;;;;;;;;;;;;;;;5043833;28;19943;-85
2023/06/13 15:19:09;;;;;;;;;;;;;;;;;;5043470;28;19924;-80
2023/06/13 15:21:37;;;;;;;;;;;;;;;;;;5041499;28;19943;-80
2023/06/13 15:24:05;;;;;;;;;;;;;;;;;;5047589;28;19932;-84
2023/06/13 15:26:37;;;;;;;;;;;;;;;;;;5041050;28;19932;-82
2023/06/13 15:29:05;;;;;;;;;;;;;;;;;;5037340;28;19939;-82
2023/06/13 15:31:32;;;;;;;;;;;;;;;;;;5037787;28;20179;-82
2023/06/13 15:34:00;;;;;;;;;;;;;;;;;;5042300;28;20278;-86
2023/06/13 15:36:27;;;;;;;;;;;;;;;;;;5047362;28;19944;-80
2023/06/13 15:39:00;;;;;;;;;;;;;;;;;;5049480;28;19943;-82
2023/06/13 15:41:33;;;;;;;;;;;;;;;;;;5050202;28;20387;-81
2023/06/13 15:44:00;;;;;;;;;;;;;;;;;;5032974;28;19932;-87
2023/06/13 15:46:28;;;;;;;;;;;;;;;;;;5039886;28;19951;-84
2023/06/13 15:48:56;;;;;;;;;;;;;;;;;;5046991;28;19944;-84
2023/06/13 15:51:28;;;;;;;;;;;;;;;;;;5049406;28;20417;-83
2023/06/13 15:53:56;;;;;;;;;;;;;;;;;;5045527;28;20297;-83
2023/06/13 15:56:23;;;;;;;;;;;;;;;;;;5039139;28;19937;-82
2023/06/13 15:58:51;;;;;;;;;;;;;;;;;;5038010;28;20360;-84
2023/06/13 16:01:23;;;;;;;;;;;;;;;;;;5041758;28;20216;-83
2023/06/13 16:03:51;;;;;;;;;;;;;;;;;;5051807;28;19935;-81
2023/06/13 16:06:20;;;;;;;;;;;;;;;;;;5040999;28;19939;-83
2023/06/13 16:08:48;;;;;;;;;;;;;;;;;;5042789;28;21352;-86
2023/06/13 16:11:16;;;;;;;;;;;;;;;;;;5037575;28;19932;-81
2023/06/13 16:13:43;;;;;;;;;;;;;;;;;;5043421;28;19932;-85
2023/06/13 16:16:16;;;;;;;;;;;;;;;;;;5061869;28;19932;-83
2023/06/13 16:18:43;;;;;;;;;;;;;;;;;;5067292;28;19932;-83
2023/06/13 16:21:11;;;;;;;;;;;;;;;;;;5067583;28;19928;-82
2023/06/13 16:23:43;;;;;;;;;;;;;;;;;;5067670;28;19932;-81
2023/06/13 16:26:16;;;;;;;;;;;;;;;;;;5062840;28;19929;-84
2023/06/13 16:28:48;;;;;;;;;;;;;;;;;;5062718;28;19925;-81
2023/06/13 16:31:16;;;;;;;;;;;;;;;;;;5060305;28;19928;-81
2023/06/13 16:33:43;;;;;;;;;;;;;;;;;;5059855;28;19933;-82
2023/06/13 16:36:11;;;;;;;;;;;;;;;;;;5063434;28;20308;-82
2023/06/13 16:38:39;;;;;;;;;;;;;;;;;;5068584;28;19925;-80
2023/06/13 16:41:06;;;;;;;;;;;;;;;;;;5055970;28;19929;-82
2023/06/13 16:43:34;;;;;;;;;;;;;;;;;;5060959;28;19948;-82
2023/06/13 16:46:06;;;;;;;;;;;;;;;;;;5065134;28;19943;-81
2023/06/13 16:48:40;;;;;;;;;;;;;;;;;;5062983;28;19931;-80
2023/06/13 16:51:12;;;;;;;;;;;;;;;;;;5061627;28;19928;-81
2023/06/13 16:53:45;;;;;;;;;;;;;;;;;;5062839;28;19933;-82
2023/06/13 16:56:12;;;;;;;;;;;;;;;;;;5056624;28;19928;-81
2023/06/13 16:58:45;;;;;;;;;;;;;;;;;;5062581;28;19939;-82
2023/06/13 17:01:12;;;;;;;;;;;;;;;;;;5061430;28;19935;-81
2023/06/13 17:03:45;;;;;;;;;;;;;;;;;;5060884;28;20297;-81
2023/06/13 17:06:17;;;;;;;;;;;;;;;;;;5078055;28;20309;-81